createdAt,value
2022-08-30T00:02:53.842Z,100638.81
2022-08-30T00:05:56.353Z,100643.91
2022-08-30T00:08:58.154Z,100639.53
2022-08-30T00:12:00.438Z,100634.63
2022-08-30T00:15:02.299Z,100633.19
2022-08-30T00:18:03.937Z,100634.72
2022-08-30T00:21:06.100Z,100630.44
2022-08-30T00:24:08.138Z,100633.22
2022-08-30T00:27:09.589Z,100630.03
2022-08-30T00:30:13.505Z,100635.47
2022-08-30T00:33:15.378Z,100641.22
2022-08-30T00:36:17.158Z,100640.66
2022-08-30T00:39:18.565Z,100640.81
2022-08-30T00:42:21.368Z,100639.25
2022-08-30T00:45:27.853Z,100642.47
2022-08-30T00:48:30.423Z,100636.34
2022-08-30T00:51:33.323Z,100640.25
2022-08-30T00:54:37.388Z,100644.13
2022-08-30T00:57:39.989Z,100643.69
2022-08-30T01:00:41.490Z,100651.63
2022-08-30T01:03:43.885Z,100657.22
2022-08-30T01:06:45.966Z,100654.50
2022-08-30T01:09:47.590Z,100658.31
2022-08-30T01:12:49.314Z,100656.09
2022-08-30T01:15:51.531Z,100655.47
2022-08-30T01:18:57.473Z,100654.94
2022-08-30T01:22:05.492Z,100662.66
2022-08-30T01:25:09.055Z,100654.28
2022-08-30T01:28:15.797Z,100666.47
2022-08-30T01:31:17.771Z,100670.16
2022-08-30T01:34:19.459Z,100656.69
2022-08-30T01:37:32.661Z,100665.34
2022-08-30T01:40:34.126Z,100657.97
2022-08-30T01:43:35.598Z,100651.75
2022-08-30T01:46:45.577Z,100654.63
2022-08-30T01:49:47.939Z,100644.25
2022-08-30T01:52:49.470Z,100645.88
2022-08-30T01:55:51.097Z,100656.25
2022-08-30T01:58:53.235Z,100650.13
2022-08-30T02:01:54.896Z,100652.72
2022-08-30T02:04:56.936Z,100660.25
2022-08-30T02:08:00.437Z,100659.63
2022-08-30T02:11:02.521Z,100653.19
2022-08-30T02:14:04.653Z,100640.50
2022-08-30T02:17:08.606Z,100636.88
2022-08-30T02:20:10.780Z,100638.22
2022-08-30T02:23:12.246Z,100638.66
2022-08-30T02:26:14.559Z,100644.09
2022-08-30T02:29:16.012Z,100636.19
2022-08-30T02:32:17.456Z,100637.13
2022-08-30T02:35:18.969Z,100641.53
2022-08-30T02:38:20.396Z,100634.06
2022-08-30T02:41:23.508Z,100631.88
2022-08-30T02:44:24.937Z,100641.44
2022-08-30T02:47:26.528Z,100639.50
2022-08-30T02:50:28.183Z,100643.25
2022-08-30T02:53:29.742Z,100641.00
2022-08-30T02:56:31.189Z,100638.78
2022-08-30T02:59:33.480Z,100618.50
2022-08-30T03:02:35.076Z,100619.59
2022-08-30T03:05:39.784Z,100628.41
2022-08-30T03:08:41.675Z,100620.56
2022-08-30T03:11:44.765Z,100626.66
2022-08-30T03:14:46.274Z,100628.19
2022-08-30T03:17:47.705Z,100625.81
2022-08-30T03:20:54.542Z,100639.63
2022-08-30T03:23:56.376Z,100626.66
2022-08-30T03:26:57.797Z,100624.94
2022-08-30T03:29:59.285Z,100628.19
2022-08-30T03:33:01.626Z,100619.00
2022-08-30T03:36:04.013Z,100617.06
2022-08-30T03:39:06.556Z,100621.78
2022-08-30T03:42:11.229Z,100625.25
2022-08-30T03:45:14.619Z,100626.03
2022-08-30T03:48:16.089Z,100622.38
2022-08-30T03:51:18.294Z,100624.41
2022-08-30T03:54:19.719Z,100633.34
2022-08-30T03:57:24.386Z,100619.59
2022-08-30T04:00:26.201Z,100623.91
2022-08-30T04:03:27.676Z,100622.69
2022-08-30T04:06:29.170Z,100630.91
2022-08-30T04:09:31.326Z,100625.25
2022-08-30T04:12:32.826Z,100634.69
2022-08-30T04:15:34.274Z,100630.06
2022-08-30T04:18:36.200Z,100626.53
2022-08-30T04:21:42.900Z,100626.06
2022-08-30T04:24:44.863Z,100630.31
2022-08-30T04:27:46.366Z,100641.69
2022-08-30T04:30:47.906Z,100638.25
2022-08-30T04:33:49.638Z,100641.00
2022-08-30T04:36:51.241Z,100644.56
2022-08-30T04:39:57.484Z,100639.78
2022-08-30T04:42:59.261Z,100638.38
2022-08-30T04:46:07.030Z,100647.63
2022-08-30T04:49:08.545Z,100642.63
2022-08-30T04:52:10.916Z,100643.69
2022-08-30T04:55:16.800Z,100651.94
2022-08-30T04:58:21.400Z,100651.06
2022-08-30T05:01:26.688Z,100655.59
2022-08-30T05:04:28.864Z,100650.53
2022-08-30T05:07:31.632Z,100655.78
2022-08-30T05:10:34.233Z,100656.25
2022-08-30T05:13:37.076Z,100653.66
2022-08-30T05:16:39.285Z,100657.13
2022-08-30T05:19:40.832Z,100662.16
2022-08-30T05:22:52.281Z,100666.47
2022-08-30T05:25:55.510Z,100666.25
2022-08-30T05:28:57.653Z,100667.88
2022-08-30T05:31:59.448Z,100685.53
2022-08-30T05:35:00.950Z,100676.94
2022-08-30T05:38:02.362Z,100680.38
2022-08-30T05:41:08.396Z,100679.25
2022-08-30T05:44:12.455Z,100687.59
2022-08-30T05:47:13.875Z,100700.25
2022-08-30T05:50:15.539Z,100695.69
2022-08-30T05:53:16.945Z,100691.41
2022-08-30T05:56:21.752Z,100698.09
2022-08-30T05:59:26.631Z,100693.19
2022-08-30T06:02:28.285Z,100686.19
2022-08-30T06:05:29.845Z,100681.78
2022-08-30T06:08:34.998Z,100680.75
2022-08-30T06:11:37.510Z,100675.19
2022-08-30T06:14:39.411Z,100667.00
2022-08-30T06:17:40.816Z,100670.63
2022-08-30T06:20:43.702Z,100673.84
2022-08-30T06:23:45.143Z,100676.19
2022-08-30T06:26:47.258Z,100671.66
2022-08-30T06:29:51.894Z,100678.63
2022-08-30T06:32:53.335Z,100676.19
2022-08-30T06:35:58.562Z,100682.28
2022-08-30T06:39:01.346Z,100674.31
2022-08-30T06:42:02.817Z,100679.59
2022-08-30T06:45:10.320Z,100682.84
2022-08-30T06:48:12.752Z,100677.75
2022-08-30T06:51:14.621Z,100673.34
2022-08-30T06:54:16.918Z,100671.19
2022-08-30T06:57:18.394Z,100672.94
2022-08-30T07:00:19.883Z,100678.38
2022-08-30T07:03:21.907Z,100679.81
2022-08-30T07:06:25.104Z,100686.00
2022-08-30T07:09:26.560Z,100687.50
2022-08-30T07:12:27.964Z,100685.56
2022-08-30T07:15:29.378Z,100684.00
2022-08-30T07:18:50.592Z,100678.16
2022-08-30T07:21:52.037Z,100688.28
2022-08-30T07:24:53.447Z,100678.59
2022-08-30T07:27:55.901Z,100689.81
2022-08-30T07:30:57.443Z,100693.38
2022-08-30T07:33:58.894Z,100694.25
2022-08-30T07:37:00.316Z,100694.28
2022-08-30T07:40:02.944Z,100701.63
2022-08-30T07:43:04.431Z,100699.59
2022-08-30T07:46:07.834Z,100696.41
2022-08-30T07:49:11.311Z,100688.72
2022-08-30T07:52:12.980Z,100689.66
2022-08-30T07:55:14.560Z,100686.59
2022-08-30T07:58:16.231Z,100692.56
2022-08-30T08:01:19.273Z,100691.69
2022-08-30T08:04:21.601Z,100693.41
2022-08-30T08:07:23.076Z,100692.06
2022-08-30T08:10:24.500Z,100699.16
2022-08-30T08:13:28.026Z,100692.94
2022-08-30T08:16:36.035Z,100690.25
2022-08-30T08:19:37.438Z,100692.75
2022-08-30T08:22:40.146Z,100689.94
2022-08-30T08:25:42.127Z,100689.53
2022-08-30T08:28:46.336Z,100692.09
2022-08-30T08:31:47.976Z,100680.97
2022-08-30T08:34:49.421Z,100689.06
2022-08-30T08:37:50.866Z,100683.16
2022-08-30T08:40:52.206Z,100679.84
2022-08-30T08:43:53.790Z,100672.03
2022-08-30T08:47:06.144Z,100673.84
2022-08-30T08:50:17.433Z,100671.66
2022-08-30T08:53:46.085Z,100672.84
2022-08-30T08:56:48.575Z,100667.47
2022-08-30T08:59:54.109Z,100671.25
2022-08-30T09:03:01.521Z,100672.34
2022-08-30T09:06:15.648Z,100665.84
2022-08-30T09:09:28.676Z,100672.66
2022-08-30T09:12:30.163Z,100665.25
2022-08-30T09:15:34.323Z,100667.44
2022-08-30T09:18:50.093Z,100664.38
2022-08-30T09:22:04.068Z,100652.69
2022-08-30T09:25:22.164Z,100653.72
2022-08-30T09:28:44.565Z,100658.19
2022-08-30T09:32:10.061Z,100655.16
2022-08-30T09:35:20.725Z,100643.44
2022-08-30T09:38:35.862Z,100645.63
2022-08-30T09:41:41.171Z,100647.13
2022-08-30T09:44:42.586Z,100639.16
2022-08-30T09:47:44.420Z,100639.66
2022-08-30T09:50:47.690Z,100627.94
2022-08-30T09:54:17.470Z,100635.97
2022-08-30T09:57:36.881Z,100637.53
2022-08-30T10:00:47.533Z,100633.00
2022-08-30T10:04:05.623Z,100621.75
2022-08-30T10:07:18.241Z,100616.91
2022-08-30T10:10:33.877Z,100619.25
2022-08-30T10:14:00.125Z,100603.31
2022-08-30T10:17:11.043Z,100607.72
2022-08-30T10:20:53.005Z,100601.03
2022-08-30T10:24:03.878Z,100592.53
2022-08-30T10:27:39.371Z,100594.16
2022-08-30T10:30:47.508Z,100590.03
2022-08-30T10:33:55.795Z,100579.72
2022-08-30T10:37:08.371Z,100581.50
2022-08-30T10:40:37.149Z,100577.94
2022-08-30T10:44:00.622Z,100575.78
2022-08-30T10:47:02.612Z,100574.03
2022-08-30T10:50:16.347Z,100575.84
2022-08-30T10:53:37.077Z,100576.91
2022-08-30T10:56:43.093Z,100579.09
2022-08-30T11:00:11.959Z,100571.06
2022-08-30T11:03:28.956Z,100568.56
2022-08-30T11:06:42.786Z,100563.00
2022-08-30T11:10:14.841Z,100564.63
2022-08-30T11:13:30.321Z,100561.09
2022-08-30T11:16:38.629Z,100557.38
2022-08-30T11:19:41.282Z,100555.03
2022-08-30T11:23:20.527Z,100558.09
2022-08-30T11:26:46.884Z,100559.56
2022-08-30T11:29:48.577Z,100554.84
2022-08-30T11:33:24.945Z,100553.13
2022-08-30T11:39:55.063Z,100553.13
2022-08-30T11:42:56.722Z,100555.38
2022-08-30T11:46:20.017Z,100549.00
2022-08-30T11:49:23.427Z,100552.66
2022-08-30T11:52:48.919Z,100545.78
2022-08-30T11:56:21.106Z,100551.41
2022-08-30T11:59:43.085Z,100547.63
2022-08-30T12:03:03.667Z,100548.16
2022-08-30T12:06:07.580Z,100540.84
2022-08-30T12:09:11.938Z,100546.28
2022-08-30T12:12:25.262Z,100540.19
2022-08-30T12:16:03.035Z,100535.72
2022-08-30T12:19:19.874Z,100539.47
2022-08-30T12:22:22.864Z,100531.31
2022-08-30T12:25:33.274Z,100522.25
2022-08-30T12:28:34.709Z,100530.19
2022-08-30T12:31:59.194Z,100516.75
2022-08-30T12:35:03.888Z,100527.75
2022-08-30T12:38:12.054Z,100520.38
2022-08-30T12:41:20.972Z,100523.03
2022-08-30T12:44:28.093Z,100513.38
2022-08-30T12:47:37.246Z,100509.88
2022-08-30T12:50:54.530Z,100506.41
2022-08-30T12:54:05.268Z,100496.13
2022-08-30T12:57:25.613Z,100497.53
2022-08-30T13:00:41.148Z,100484.00
2022-08-30T13:03:42.685Z,100488.09
2022-08-30T13:06:52.639Z,100487.63
2022-08-30T13:10:14.354Z,100489.50
2022-08-30T13:13:29.128Z,100482.59
2022-08-30T13:16:40.341Z,100479.03
2022-08-30T13:19:57.690Z,100479.63
2022-08-30T13:23:07.679Z,100473.13
2022-08-30T13:26:11.493Z,100466.06
2022-08-30T13:29:18.858Z,100451.09
2022-08-30T13:32:20.754Z,100450.53
2022-08-30T13:35:22.537Z,100460.44
2022-08-30T13:38:24.049Z,100455.38
2022-08-30T13:41:26.156Z,100456.06
2022-08-30T13:44:31.746Z,100439.56
2022-08-30T13:47:34.775Z,100450.78
2022-08-30T13:50:36.744Z,100440.06
2022-08-30T13:53:54.629Z,100445.16
2022-08-30T13:56:56.748Z,100443.63
2022-08-30T13:59:58.826Z,100433.28
2022-08-30T14:03:01.570Z,100433.53
2022-08-30T14:06:31.579Z,100426.66
2022-08-30T14:09:26.898Z,100425.13
2022-08-30T14:16:26.850Z,100417.56
2022-08-30T14:19:15.390Z,100412.47
2022-08-30T14:22:19.793Z,100409.22
2022-08-30T14:25:21.440Z,100401.97
2022-08-30T14:28:22.874Z,100398.75
2022-08-30T14:31:25.744Z,100389.19
2022-08-30T14:34:27.572Z,100388.16
2022-08-30T14:37:29.028Z,100383.28
2022-08-30T14:40:31.737Z,100378.41
2022-08-30T14:43:33.476Z,100381.47
2022-08-30T14:46:34.939Z,100375.25
2022-08-30T14:49:36.848Z,100377.19
2022-08-30T14:52:38.481Z,100368.13
2022-08-30T14:55:41.075Z,100369.75
2022-08-30T14:58:43.100Z,100366.53
2022-08-30T15:01:44.610Z,100363.41
2022-08-30T15:04:47.071Z,100356.94
2022-08-30T15:07:52.804Z,100363.25
2022-08-30T15:10:54.298Z,100362.38
2022-08-30T15:13:55.726Z,100361.88
2022-08-30T15:16:58.805Z,100358.44
2022-08-30T15:20:00.222Z,100356.88
2022-08-30T15:23:02.154Z,100354.81
2022-08-30T15:26:04.186Z,100358.50
2022-08-30T15:29:05.836Z,100351.84
2022-08-30T15:32:07.920Z,100352.44
2022-08-30T15:35:09.544Z,100350.16
2022-08-30T15:38:12.490Z,100350.00
2022-08-30T15:41:14.821Z,100355.84
2022-08-30T15:44:16.300Z,100358.97
2022-08-30T15:47:22.266Z,100354.00
2022-08-30T15:50:23.852Z,100355.63
2022-08-30T15:53:25.252Z,100348.63
2022-08-30T15:56:26.690Z,100347.72
2022-08-30T15:59:30.410Z,100343.28
2022-08-30T16:02:31.977Z,100338.91
2022-08-30T16:05:33.437Z,100336.88
2022-08-30T16:08:34.840Z,100334.97
2022-08-30T16:11:37.548Z,100327.53
2022-08-30T16:14:38.964Z,100327.59
2022-08-30T16:17:40.867Z,100325.09
2022-08-30T16:20:43.393Z,100326.44
2022-08-30T16:23:45.255Z,100328.88
2022-08-30T16:26:49.882Z,100324.59
2022-08-30T16:29:51.328Z,100327.91
2022-08-30T16:32:52.796Z,100331.09
2022-08-30T16:35:56.969Z,100332.59
2022-08-30T16:38:58.903Z,100335.78
2022-08-30T16:42:03.140Z,100334.16
2022-08-30T16:45:10.247Z,100334.28
2022-08-30T16:48:13.413Z,100325.84
2022-08-30T16:51:18.111Z,100325.91
2022-08-30T16:54:19.763Z,100318.22
2022-08-30T16:57:21.367Z,100318.41
2022-08-30T17:00:23.974Z,100318.09
2022-08-30T17:03:25.714Z,100315.13
2022-08-30T17:06:27.605Z,100315.59
2022-08-30T17:09:29.173Z,100320.19
2022-08-30T17:12:30.933Z,100321.41
2022-08-30T17:15:32.561Z,100333.84
2022-08-30T17:18:35.640Z,100333.34
2022-08-30T17:21:38.851Z,100334.41
2022-08-30T17:24:41.032Z,100339.88
2022-08-30T17:27:42.469Z,100339.41
2022-08-30T17:30:43.939Z,100339.47
2022-08-30T17:33:46.781Z,100348.84
2022-08-30T17:36:49.622Z,100356.03
2022-08-30T17:39:51.368Z,100356.88
2022-08-30T17:42:52.909Z,100365.03
2022-08-30T17:45:54.321Z,100361.63
2022-08-30T17:48:57.568Z,100365.38
2022-08-30T17:52:03.939Z,100359.28
2022-08-30T17:55:07.538Z,100359.28
2022-08-30T17:58:09.022Z,100369.75
2022-08-30T18:01:14.647Z,100369.06
2022-08-30T18:04:19.686Z,100371.44
2022-08-30T18:07:21.928Z,100372.78
2022-08-30T18:10:28.440Z,100369.72
2022-08-30T18:13:35.919Z,100377.50
2022-08-30T18:16:39.148Z,100376.81
2022-08-30T18:19:51.264Z,100377.81
2022-08-30T18:22:52.715Z,100382.19
2022-08-30T18:26:00.367Z,100387.56
2022-08-30T18:29:03.986Z,100385.47
2022-08-30T18:32:05.582Z,100381.88
2022-08-30T18:35:10.490Z,100390.16
2022-08-30T18:38:12.576Z,100387.41
2022-08-30T18:41:16.253Z,100384.50
2022-08-30T18:44:27.683Z,100394.25
2022-08-30T18:47:30.112Z,100398.38
2022-08-30T18:50:32.844Z,100393.97
2022-08-30T18:53:35.310Z,100392.19
2022-08-30T18:56:38.944Z,100394.66
2022-08-30T18:59:41.801Z,100398.03
2022-08-30T19:03:02.262Z,100399.19
2022-08-30T19:06:06.068Z,100403.91
2022-08-30T19:09:09.446Z,100402.38
2022-08-30T19:12:11.400Z,100402.78
2022-08-30T19:15:14.169Z,100405.69
2022-08-30T19:21:37.316Z,100410.34
2022-08-30T19:24:38.795Z,100414.03
2022-08-30T19:27:40.543Z,100407.88
2022-08-30T19:30:41.982Z,100416.22
2022-08-30T19:33:45.071Z,100418.81
2022-08-30T19:36:46.666Z,100414.34
2022-08-30T19:39:48.581Z,100426.63
2022-08-30T19:42:51.369Z,100427.91
2022-08-30T19:45:55.320Z,100423.00
2022-08-30T19:48:57.318Z,100432.38
2022-08-30T19:51:58.872Z,100431.63
2022-08-30T19:55:02.649Z,100436.88
2022-08-30T19:58:04.586Z,100426.66
2022-08-30T20:01:13.050Z,100435.75
2022-08-30T20:04:22.024Z,100443.84
2022-08-30T20:07:26.213Z,100438.91
2022-08-30T20:10:29.593Z,100446.97
2022-08-30T20:13:33.902Z,100444.41
2022-08-30T20:16:37.544Z,100444.81
2022-08-30T20:19:39.726Z,100452.81
2022-08-30T20:22:41.160Z,100450.22
2022-08-30T20:24:32.483Z,100403.06
2022-08-30T20:25:54.380Z,100453.75
2022-08-30T20:28:55.882Z,100455.31
2022-08-30T20:31:57.315Z,100450.22
2022-08-30T20:34:59.057Z,100444.81
2022-08-30T20:38:06.174Z,100440.59
2022-08-30T20:41:11.008Z,100446.84
2022-08-30T20:44:12.462Z,100445.13
2022-08-30T20:47:17.359Z,100439.16
2022-08-30T20:50:19.118Z,100436.88
2022-08-30T20:53:20.554Z,100432.91
2022-08-30T20:56:22.878Z,100439.72
2022-08-30T20:59:24.322Z,100427.34
2022-08-30T21:02:26.060Z,100432.72
2022-08-30T21:05:27.528Z,100431.59
2022-08-30T21:08:29.013Z,100429.88
2022-08-30T21:11:30.576Z,100436.28
2022-08-30T21:14:32.127Z,100428.19
2022-08-30T21:17:33.549Z,100435.56
2022-08-30T21:20:35.634Z,100432.88
2022-08-30T21:23:37.296Z,100431.47
2022-08-30T21:26:40.701Z,100429.47
2022-08-30T21:29:42.304Z,100440.56
2022-08-30T21:32:43.840Z,100439.84
2022-08-30T21:36:03.772Z,100441.13
2022-08-30T21:39:06.501Z,100447.38
2022-08-30T21:42:08.945Z,100446.56
2022-08-30T21:45:10.617Z,100451.78
2022-08-30T21:48:13.538Z,100449.38
2022-08-30T21:51:15.113Z,100451.94
2022-08-30T21:54:18.028Z,100461.59
2022-08-30T21:57:19.488Z,100459.47
2022-08-30T22:00:21.136Z,100461.56
2022-08-30T22:03:22.599Z,100468.69
2022-08-30T22:06:25.233Z,100465.28
2022-08-30T22:09:32.224Z,100468.00
2022-08-30T22:12:34.440Z,100477.06
2022-08-30T22:15:35.859Z,100474.06
2022-08-30T22:18:39.741Z,100476.22
2022-08-30T22:21:42.360Z,100475.78
2022-08-30T22:24:43.782Z,100484.56
2022-08-30T22:27:45.874Z,100483.16
2022-08-30T22:30:48.451Z,100489.72
2022-08-30T22:33:51.584Z,100484.97
2022-08-30T22:36:53.148Z,100488.66
2022-08-30T22:39:54.634Z,100494.63
2022-08-30T22:42:56.054Z,100487.25
2022-08-30T22:45:58.062Z,100486.94
2022-08-30T22:48:59.643Z,100486.09
2022-08-30T22:52:01.089Z,100489.94
2022-08-30T22:55:04.134Z,100484.81
2022-08-30T22:58:05.556Z,100493.19
2022-08-30T23:01:07.348Z,100487.63
2022-08-30T23:04:09.539Z,100491.72
2022-08-30T23:07:10.973Z,100489.31
2022-08-30T23:10:13.790Z,100488.34
2022-08-30T23:13:15.290Z,100496.81
2022-08-30T23:16:17.342Z,100499.50
2022-08-30T23:19:18.806Z,100514.81
2022-08-30T23:22:20.204Z,100523.31
2022-08-30T23:25:41.402Z,100510.88
2022-08-30T23:29:01.804Z,100509.84
2022-08-30T23:32:22.549Z,100507.44
2022-08-30T23:35:42.305Z,100509.94
2022-08-30T23:39:02.137Z,100511.03
2022-08-30T23:42:24.274Z,100516.66
2022-08-30T23:45:44.136Z,100507.72
2022-08-30T23:49:04.362Z,100510.66
2022-08-30T23:52:24.094Z,100508.56
2022-08-30T23:55:43.857Z,100517.50
2022-08-30T23:59:03.810Z,100514.94
